Factory Village, New York
Current Conditions -  °F | °C
As of 2:51 AM on Wednesday 26 Nov 2014 (Local Time) from KALB Reporting Station
Overcast Overcast  
Wind Chill: 35°   Ceiling: 20000
Heat Index: 39°   Visibility: 10mi
Dew Point: 27°   Wind: 6mph
Humidity: 62%   Direction: 300°WNW
Pressure: 30.23"   Gusts: NA
Location:  43.002°N, 73.8759°W
Report Text: KALB 260751Z 30005KT 10SM FEW030 OVC200 04/M03 A3023 RMK AO2 SLP237 T00391028
Loading
Personal Weather Stations






























Interactive Weather Map New forecast layout! Learn more

10-Day Weather Forecast

Advertisements
Track Severe Weather on mobile